createdAt,value
2023-07-19T00:00:10.711Z,94719.31
2023-07-19T00:02:38.395Z,94721.75
2023-07-19T00:05:06.793Z,94715.41
2023-07-19T00:07:36.016Z,94711.69
2023-07-19T00:10:04.461Z,94709.72
2023-07-19T00:12:39.351Z,94709.72
2023-07-19T00:15:18.707Z,94716.09
2023-07-19T00:17:46.717Z,94719.66
2023-07-19T00:20:15.440Z,94720.78
2023-07-19T00:22:44.484Z,94726.31
2023-07-19T00:25:12.208Z,94724.38
2023-07-19T00:27:39.939Z,94717.06
2023-07-19T00:30:08.946Z,94728.31
2023-07-19T00:32:36.696Z,94739.91
2023-07-19T00:35:04.891Z,94734.38
2023-07-19T00:37:32.555Z,94738.44
2023-07-19T00:40:01.719Z,94714.31
2023-07-19T00:42:29.342Z,94698.03
2023-07-19T00:44:57.086Z,94702.75
2023-07-19T00:47:27.835Z,94729.09
2023-07-19T00:49:56.101Z,94722.06
2023-07-19T00:52:23.834Z,94730.97
2023-07-19T00:54:51.548Z,94736.66
2023-07-19T00:57:20.703Z,94740.41
2023-07-19T00:59:48.393Z,94763.00
2023-07-19T01:02:16.065Z,94763.31
2023-07-19T01:04:43.771Z,94763.81
2023-07-19T01:07:11.728Z,94756.81
2023-07-19T01:09:39.391Z,94742.31
2023-07-19T01:12:09.831Z,94733.13
2023-07-19T01:14:38.853Z,94742.25
2023-07-19T01:17:07.082Z,94739.31
2023-07-19T01:19:34.777Z,94731.56
2023-07-19T01:22:02.707Z,94740.84
2023-07-19T01:24:31.729Z,94730.25
2023-07-19T01:27:06.061Z,94718.69
2023-07-19T01:29:40.815Z,94716.34
2023-07-19T01:32:09.295Z,94710.38
2023-07-19T01:34:36.941Z,94703.44
2023-07-19T01:37:04.820Z,94716.44
2023-07-19T01:39:34.129Z,94717.38
2023-07-19T01:42:01.744Z,94716.38
2023-07-19T01:44:29.438Z,94730.69
2023-07-19T01:46:57.077Z,94742.78
2023-07-19T01:49:24.710Z,94738.25
2023-07-19T01:51:52.342Z,94729.34
2023-07-19T01:54:19.981Z,94729.75
2023-07-19T01:56:48.979Z,94735.28
2023-07-19T01:59:16.637Z,94754.13
2023-07-19T02:01:45.039Z,94739.78
2023-07-19T02:04:12.787Z,94760.47
2023-07-19T02:06:40.549Z,94747.16
2023-07-19T02:09:08.253Z,94754.63
2023-07-19T02:11:36.756Z,94734.78
2023-07-19T02:14:05.986Z,94728.44
2023-07-19T02:16:33.626Z,94719.84
2023-07-19T02:19:01.291Z,94720.03
2023-07-19T02:21:28.942Z,94720.03
2023-07-19T02:23:56.803Z,94727.00
2023-07-19T02:26:24.566Z,94735.09
2023-07-19T02:28:52.319Z,94725.47
2023-07-19T02:31:21.555Z,94721.28
2023-07-19T02:33:49.363Z,94724.66
2023-07-19T02:36:17.235Z,94720.97
2023-07-19T02:38:45.381Z,94722.09
2023-07-19T02:41:14.200Z,94722.22
2023-07-19T02:43:41.928Z,94721.19
2023-07-19T02:46:09.582Z,94727.63
2023-07-19T02:48:38.594Z,94720.19
2023-07-19T02:51:06.236Z,94724.19
2023-07-19T02:53:33.880Z,94728.91
2023-07-19T02:56:01.643Z,94728.41
2023-07-19T02:58:30.052Z,94738.09
2023-07-19T03:00:57.739Z,94727.16
2023-07-19T03:03:25.586Z,94722.88
2023-07-19T03:05:54.613Z,94730.34
2023-07-19T03:08:22.250Z,94720.09
2023-07-19T03:10:54.419Z,94719.59
2023-07-19T03:13:22.198Z,94726.25
2023-07-19T03:15:50.025Z,94727.50
2023-07-19T03:18:17.924Z,94722.59
2023-07-19T03:20:45.809Z,94719.63
2023-07-19T03:23:15.335Z,94718.28
2023-07-19T03:25:43.201Z,94721.03
2023-07-19T03:28:11.184Z,94724.09
2023-07-19T03:30:39.081Z,94716.44
2023-07-19T03:33:06.909Z,94717.78
2023-07-19T03:35:34.757Z,94717.25
2023-07-19T03:38:03.065Z,94716.03
2023-07-19T03:40:32.274Z,94715.53
2023-07-19T03:43:00.130Z,94708.84
2023-07-19T03:45:29.569Z,94709.84
2023-07-19T03:47:57.597Z,94696.25
2023-07-19T03:50:26.748Z,94706.31
2023-07-19T03:52:54.534Z,94700.31
2023-07-19T03:55:23.028Z,94702.25
2023-07-19T03:57:52.379Z,94692.25
2023-07-19T04:00:20.567Z,94693.28
2023-07-19T04:02:48.325Z,94689.19
2023-07-19T04:05:16.910Z,94686.53
2023-07-19T04:07:45.034Z,94682.66
2023-07-19T04:10:12.738Z,94677.94
2023-07-19T04:12:40.420Z,94676.75
2023-07-19T04:15:10.212Z,94682.97
2023-07-19T04:17:37.953Z,94676.94
2023-07-19T04:20:07.579Z,94685.22
2023-07-19T04:22:35.294Z,94686.22
2023-07-19T04:25:04.605Z,94679.81
2023-07-19T04:27:33.206Z,94686.38
2023-07-19T04:30:00.910Z,94697.00
2023-07-19T04:32:30.113Z,94695.75
2023-07-19T04:34:59.206Z,94702.03
2023-07-19T04:37:26.968Z,94700.00
2023-07-19T04:39:54.612Z,94704.78
2023-07-19T04:42:23.292Z,94703.59
2023-07-19T04:44:50.976Z,94702.63
2023-07-19T04:47:18.955Z,94696.19
2023-07-19T04:49:47.994Z,94689.66
2023-07-19T04:52:15.726Z,94694.75
2023-07-19T04:54:43.428Z,94698.94
2023-07-19T04:57:11.101Z,94699.03
2023-07-19T04:59:38.808Z,94703.88
2023-07-19T05:02:07.073Z,94705.13
2023-07-19T05:04:34.749Z,94707.97
2023-07-19T05:07:03.805Z,94702.81
2023-07-19T05:09:31.485Z,94699.81
2023-07-19T05:11:59.615Z,94689.84
2023-07-19T05:14:27.446Z,94711.25
2023-07-19T05:16:55.470Z,94722.59
2023-07-19T05:19:23.159Z,94711.25
2023-07-19T05:21:51.744Z,94705.28
2023-07-19T05:24:20.955Z,94712.00
2023-07-19T05:26:48.956Z,94716.09
2023-07-19T05:29:16.600Z,94719.03
2023-07-19T05:31:44.313Z,94715.50
2023-07-19T05:34:11.961Z,94711.97
2023-07-19T05:36:39.713Z,94700.91
2023-07-19T05:39:07.442Z,94712.03
2023-07-19T05:41:36.532Z,94701.81
2023-07-19T05:44:11.674Z,94713.06
2023-07-19T05:46:40.397Z,94718.19
2023-07-19T05:49:07.998Z,94722.81
2023-07-19T05:51:35.896Z,94718.25
2023-07-19T05:54:04.764Z,94731.63
2023-07-19T05:56:32.497Z,94730.19
2023-07-19T05:59:01.754Z,94738.66
2023-07-19T06:01:32.319Z,94743.56
2023-07-19T06:04:02.173Z,94752.06
2023-07-19T06:06:30.058Z,94741.97
2023-07-19T06:08:57.701Z,94737.06
2023-07-19T06:11:25.378Z,94748.31
2023-07-19T06:13:53.161Z,94746.81
2023-07-19T06:16:22.337Z,94756.91
2023-07-19T06:18:50.054Z,94754.94
2023-07-19T06:21:17.840Z,94754.59
2023-07-19T06:23:45.767Z,94750.78
2023-07-19T06:26:14.176Z,94758.75
2023-07-19T06:28:42.031Z,94767.53
2023-07-19T06:31:09.857Z,94766.69
2023-07-19T06:33:39.062Z,94760.63
2023-07-19T06:36:07.277Z,94769.69
2023-07-19T06:38:38.022Z,94770.19
2023-07-19T06:41:06.383Z,94768.25
2023-07-19T06:43:34.446Z,94773.25
2023-07-19T06:59:38.060Z,94787.13
2023-07-19T07:12:23.070Z,94805.41
2023-07-19T08:51:53.615Z,94762.00
2023-07-19T08:57:45.131Z,94768.91
2023-07-19T09:06:44.153Z,94770.53
2023-07-19T09:16:04.599Z,94775.88
2023-07-19T09:31:29.408Z,94776.84
2023-07-19T09:34:52.062Z,94778.44
2023-07-19T09:37:44.073Z,94783.00
2023-07-19T09:41:12.518Z,94770.78
2023-07-19T09:47:49.639Z,94778.81
2023-07-19T09:59:11.862Z,94775.22
2023-07-19T10:02:02.819Z,94767.31
2023-07-19T10:04:48.380Z,94772.44
2023-07-19T10:10:54.081Z,94759.44
2023-07-19T12:18:45.376Z,94655.91
2023-07-19T12:28:54.571Z,94643.88
2023-07-19T13:46:12.954Z,94573.81
2023-07-19T14:05:22.797Z,94559.97
2023-07-19T15:33:49.193Z,94484.59
2023-07-19T15:41:05.988Z,94476.28
2023-07-19T15:48:39.168Z,94469.22
2023-07-19T15:51:08.791Z,94464.50
2023-07-19T16:06:05.304Z,94466.16
2023-07-19T19:24:54.485Z,94560.31
2023-07-19T19:27:36.508Z,94555.31
2023-07-19T23:51:10.946Z,94736.00
2023-07-19T23:54:54.085Z,94731.13
2023-07-19T23:57:36.899Z,94726.34
